createdAt,value
2018-04-22T07:27:10.741Z,16.76
2018-04-22T07:29:39.963Z,17.02
2018-04-22T07:32:09.457Z,17.10
2018-04-22T07:34:38.971Z,17.37
2018-04-22T07:37:12.869Z,17.66
2018-04-22T07:39:42.250Z,17.90
2018-04-22T07:42:11.319Z,17.97
2018-04-22T07:44:40.398Z,17.88
2018-04-22T07:47:09.445Z,17.85
2018-04-22T07:49:38.491Z,17.90
2018-04-22T07:52:10.272Z,17.97
2018-04-22T07:54:44.275Z,18.00
2018-04-22T07:57:13.596Z,17.93
2018-04-22T07:59:42.643Z,17.89
2018-04-22T08:02:11.690Z,17.95
2018-04-22T08:04:41.355Z,18.03
2018-04-22T08:07:14.440Z,18.34
2018-04-22T08:09:43.779Z,18.54
2018-04-22T08:12:12.740Z,18.78
2018-04-22T08:14:41.739Z,18.90
2018-04-22T08:17:21.917Z,18.91
2018-04-22T08:19:51.366Z,18.91
2018-04-22T08:22:21.426Z,19.02
2018-04-22T08:24:51.013Z,19.22
2018-04-22T08:27:23.109Z,19.36
2018-04-22T08:29:52.074Z,19.55
2018-04-22T08:32:21.039Z,19.62
2018-04-22T08:34:49.941Z,19.87
2018-04-22T08:37:21.529Z,19.95
2018-04-22T08:39:50.794Z,19.90
2018-04-22T08:42:19.723Z,20.15
2018-04-22T08:44:49.179Z,20.26
2018-04-22T08:47:19.874Z,20.30
2018-04-22T08:49:51.305Z,20.42
2018-04-22T08:52:22.013Z,20.42
2018-04-22T08:54:52.940Z,20.47
2018-04-22T08:57:23.431Z,20.67
2018-04-22T08:59:54.356Z,20.88
2018-04-22T09:02:25.358Z,21.02
2018-04-22T09:04:56.209Z,21.21
2018-04-22T09:07:27.293Z,21.26
2018-04-22T09:09:57.864Z,21.40
2018-04-22T09:12:28.394Z,21.61
2018-04-22T09:14:59.334Z,21.61
2018-04-22T09:17:30.353Z,21.77
2018-04-22T09:20:01.510Z,21.97
2018-04-22T09:22:32.096Z,21.81
2018-04-22T09:25:02.813Z,21.83
2018-04-22T09:27:33.394Z,21.70
2018-04-22T09:33:36.626Z,22.46
2018-04-22T09:36:05.659Z,22.68
2018-04-22T09:38:35.045Z,22.77
2018-04-22T09:41:04.076Z,22.59
2018-04-22T09:43:33.318Z,22.73
2018-04-22T09:46:02.446Z,22.84
2018-04-22T09:48:31.386Z,22.99
2018-04-22T09:51:00.598Z,23.22
2018-04-22T09:53:29.900Z,23.31
2018-04-22T09:55:58.914Z,23.42
2018-04-22T09:58:27.862Z,23.55
2018-04-22T10:01:02.030Z,23.57
2018-04-22T10:03:31.995Z,23.81
2018-04-22T10:06:03.238Z,23.83
2018-04-22T10:08:36.950Z,23.87
2018-04-22T10:11:06.308Z,23.86
2018-04-22T10:13:35.515Z,23.87
2018-04-22T10:16:04.749Z,23.73
2018-04-22T10:18:34.189Z,23.99
2018-04-22T10:21:03.126Z,24.25
2018-04-22T10:23:32.206Z,24.46
2018-04-22T10:26:01.322Z,24.61
2018-04-22T10:28:30.318Z,24.86
2018-04-22T10:30:59.459Z,25.16
2018-04-22T10:33:28.494Z,25.01
2018-04-22T10:35:58.083Z,25.03
2018-04-22T10:38:27.213Z,25.14
2018-04-22T10:40:56.350Z,25.11
2018-04-22T10:43:25.297Z,25.28
2018-04-22T10:45:54.295Z,25.33
2018-04-22T10:48:23.408Z,25.47
2018-04-22T10:50:52.368Z,25.59
2018-04-22T10:53:21.292Z,25.72
2018-04-22T10:55:50.530Z,25.84
2018-04-22T10:58:19.504Z,25.89
2018-04-22T11:00:53.888Z,25.86
2018-04-22T11:03:23.110Z,25.95
2018-04-22T11:05:52.040Z,26.07
2018-04-22T11:08:21.669Z,26.26
2018-04-22T11:10:50.690Z,26.42
2018-04-22T11:13:19.609Z,26.65
2018-04-22T11:15:48.648Z,26.46
2018-04-22T11:18:17.612Z,26.16
2018-04-22T11:20:46.579Z,26.13
2018-04-22T11:23:15.574Z,26.35
2018-04-22T11:25:47.067Z,26.61
2018-04-22T11:28:16.074Z,26.87
2018-04-22T11:30:47.107Z,26.99
2018-04-22T11:33:16.076Z,27.30
2018-04-22T11:35:46.721Z,27.40
2018-04-22T11:38:16.155Z,27.35
2018-04-22T11:40:45.852Z,27.34
2018-04-22T11:43:15.072Z,27.31
2018-04-22T11:45:44.047Z,27.46
2018-04-22T11:48:13.081Z,27.60
2018-04-22T11:50:41.999Z,27.53
2018-04-22T11:53:11.313Z,27.75
2018-04-22T11:55:40.250Z,27.95
2018-04-22T11:58:09.224Z,27.76
2018-04-22T12:00:38.505Z,27.71
2018-04-22T12:03:07.477Z,27.85
2018-04-22T12:05:36.471Z,27.88
2018-04-22T12:08:05.853Z,27.98
2018-04-22T12:10:34.864Z,28.16
2018-04-22T12:13:03.819Z,28.29
2018-04-22T12:15:32.869Z,28.30
2018-04-22T12:18:01.809Z,28.44
2018-04-22T12:20:30.781Z,28.33
2018-04-22T12:23:01.049Z,28.39
2018-04-22T12:25:30.123Z,28.48
2018-04-22T12:27:59.102Z,28.58
2018-04-22T12:30:29.561Z,28.58
2018-04-22T12:32:58.535Z,28.84
2018-04-22T12:35:27.722Z,28.56
2018-04-22T12:37:56.836Z,28.44
2018-04-22T12:40:26.020Z,28.59
2018-04-22T12:42:54.999Z,28.99
2018-04-22T12:45:24.020Z,29.17
2018-04-22T12:47:53.311Z,29.36
2018-04-22T12:50:22.821Z,29.24
2018-04-22T12:52:51.876Z,29.07
2018-04-22T12:55:21.230Z,29.34
2018-04-22T12:57:50.330Z,29.37
2018-04-22T13:00:19.602Z,29.61
